Seaexpressii — HO4619 — position and weather

sailwx.info

Track history (hours):
 
Tides and Currents Weather Stations Pressure Air Temp Water Temp Dewpoint Dewpoint Depression Visibility Wind Speed Wind Dir Waves Ship Positions

Seaexpressii

Last reported at 2018-Jun-24 05:25 UTC. Time now 2018-Jun-25 11:29 UTC.
Position N 25°56' W 079°38'.

Length 37 m; draft 2 m.

Type: Cargo ship. MMSI: 356449000.

Date/timePositionNaut miles runAvg speedWind from/ knotsBaromVisibWave heightAir tempDewpointWater temp
2018-Jun-24 05:25N 25°56' W 079°38'4 9.0
2018-Jun-24 05:00N 25°56' W 079°42'4 8.9
2018-Jun-24 04:30N 25°57' W 079°47'4 8.8
2018-Jun-24 04:00N 25°58' W 079°52'4 8.8
2018-Jun-24 03:30N 25°58' W 079°57'4 8.5
2018-Jun-24 03:00N 26°00' W 080°01'4 7.6
2018-Jun-24 02:30N 26°03' W 080°04'4 7.4
2018-Jun-24 02:00N 26°06' W 080°07'2 4.1
2018-Jun-24 01:30N 26°04' W 080°08'0 0.0
2018-Jun-24 00:56N 26°04' W 080°08'0 0.0
2018-Jun-24 00:26N 26°04' W 080°08'0 0.0
2018-Jun-23 23:59N 26°04' W 080°08'0 0.0
2018-Jun-23 23:29N 26°04' W 080°08'0 0.0
2018-Jun-23 22:59N 26°04' W 080°08'0 0.0
2018-Jun-23 22:26N 26°04' W 080°08'0 0.2
2018-Jun-23 22:00N 26°04' W 080°08'2 4.3
2018-Jun-23 21:30N 26°06' W 080°07'5 9.7
2018-Jun-23 20:58N 26°04' W 080°01'612.2
2018-Jun-23 20:30N 25°59' W 079°57'612.8
2018-Jun-23 20:00N 25°54' W 079°53'510.8
2018-Jun-23 19:30N 25°51' W 079°48'8 0.6
2018-Jun-23 06:38N 25°47' W 079°41'2 9.6
2018-Jun-23 06:29N 25°47' W 079°42'4 9.4
2018-Jun-23 06:00N 25°47' W 079°47'5 9.2
2018-Jun-23 05:31N 25°47' W 079°52'5 9.4
2018-Jun-23 05:01N 25°47' W 079°58'5 9.6
2018-Jun-23 04:30N 25°47' W 080°03'4 7.4
2018-Jun-23 04:01N 25°51' W 080°04'4 8.7
2018-Jun-23 03:31N 25°55' W 080°04'5 9.1
2018-Jun-23 03:00N 25°60' W 080°04'5 9.7
2018-Jun-23 02:31N 26°04' W 080°04'2 4.4
2018-Jun-23 02:00N 26°04' W 080°07'1 2.3
2018-Jun-23 01:31N 26°04' W 080°08'0 0.0
2018-Jun-23 01:00N 26°04' W 080°08'0 0.0
2018-Jun-23 00:30N 26°04' W 080°08'0 0.0
2018-Jun-23 00:00N 26°04' W 080°08'0 0.0
2018-Jun-22 23:30N 26°04' W 080°08'0 0.0
2018-Jun-22 23:00N 26°04' W 080°08'0 0.0
2018-Jun-22 22:30N 26°04' W 080°08'0 0.0
2018-Jun-22 22:00N 26°04' W 080°08'0 0.0
2018-Jun-22 21:30N 26°04' W 080°08'0 0.0
2018-Jun-22 21:00N 26°04' W 080°08'0 0.0
2018-Jun-22 20:30N 26°04' W 080°08'0 0.0
2018-Jun-22 20:01N 26°04' W 080°08'0 0.0
2018-Jun-22 19:30N 26°04' W 080°08'0 0.0
2018-Jun-22 19:01N 26°04' W 080°08'0 0.0
2018-Jun-22 18:30N 26°04' W 080°08'0 0.0
2018-Jun-22 18:00N 26°04' W 080°08'0 0.0
2018-Jun-22 17:30N 26°04' W 080°08'0 0.0
2018-Jun-22 17:01N 26°04' W 080°08'0 0.5
2018-Jun-22 16:30N 26°04' W 080°08'3 5.3
2018-Jun-22 16:00N 26°06' W 080°06'510.0
2018-Jun-22 15:30N 26°03' W 080°01'611.6
2018-Jun-22 15:00N 25°60' W 079°56'612.0
2018-Jun-22 14:30N 25°55' W 079°51'611.9
2018-Jun-22 14:00N 25°51' W 079°46'6 0.2
2018-Jun-21 09:27N 25°45' W 079°46'4 9.2
2018-Jun-21 09:00N 25°46' W 079°50'5 9.2
2018-Jun-21 08:31N 25°47' W 079°55'4 8.6
2018-Jun-21 08:01N 25°49' W 079°60'4 8.8
2018-Jun-21 07:30N 25°52' W 080°03'5 9.8
2018-Jun-21 07:00N 25°57' W 080°04'510.1
2018-Jun-21 06:31N 26°02' W 080°04'4 8.2
2018-Jun-21 06:00N 26°06' W 080°06'2 4.9
2018-Jun-21 05:30N 26°04' W 080°07'0 0.6
2018-Jun-21 04:50N 26°04' W 080°08'0 0.0
2018-Jun-21 04:23N 26°04' W 080°08'0 0.0
2018-Jun-21 03:53N 26°04' W 080°08'0 0.0
2018-Jun-21 03:23N 26°04' W 080°08'0 0.0
2018-Jun-21 02:53N 26°04' W 080°08'0 0.0
2018-Jun-21 02:23N 26°04' W 080°08'0 0.0
2018-Jun-21 01:56N 26°04' W 080°08'0 0.0
2018-Jun-21 01:26N 26°04' W 080°08'0 0.0
2018-Jun-21 00:56N 26°04' W 080°08'0 0.1
2018-Jun-21 00:26N 26°04' W 080°08'0 0.0
2018-Jun-20 23:56N 26°04' W 080°08'0 0.0
2018-Jun-20 23:29N 26°04' W 080°08'0 0.0
2018-Jun-20 22:59N 26°04' W 080°08'0 0.0
2018-Jun-20 22:29N 26°04' W 080°08'0 0.0
2018-Jun-20 21:59N 26°04' W 080°08'0 0.0
2018-Jun-20 21:29N 26°04' W 080°08'0 0.0
2018-Jun-20 20:59N 26°04' W 080°08'0 0.0
2018-Jun-20 20:26N 26°04' W 080°08'0 0.0
2018-Jun-20 19:59N 26°04' W 080°08'0 0.0
2018-Jun-20 19:29N 26°04' W 080°08'0 0.0
2018-Jun-20 18:59N 26°04' W 080°08'0 0.0
2018-Jun-20 18:29N 26°04' W 080°08'0 0.0
2018-Jun-20 17:59N 26°04' W 080°08'0 0.0
2018-Jun-20 17:29N 26°04' W 080°08'0 0.0
2018-Jun-20 16:59N 26°04' W 080°08'0 0.0
2018-Jun-20 16:20N 26°04' W 080°08'0 0.0
2018-Jun-20 15:50N 26°04' W 080°08'0 0.0
2018-Jun-20 15:20N 26°04' W 080°08'0 0.0
2018-Jun-20 14:59N 26°04' W 080°08'0 0.0
2018-Jun-20 14:26N 26°04' W 080°08'0 0.0
2018-Jun-20 13:53N 26°04' W 080°08'0 0.0
2018-Jun-20 13:23N 26°04' W 080°08'0 0.0
2018-Jun-20 12:53N 26°04' W 080°08'0 0.0
2018-Jun-20 12:26N 26°04' W 080°08'0 0.2
2018-Jun-20 11:56N 26°04' W 080°08'0 0.2
2018-Jun-20 11:26N 26°04' W 080°08'0 0.0
2018-Jun-20 10:56N 26°04' W 080°08'0 0.0
2018-Jun-20 10:26N 26°04' W 080°08'0 0.0
2018-Jun-20 09:56N 26°04' W 080°08'0 0.0
2018-Jun-20 09:26N 26°04' W 080°08'0 0.0
2018-Jun-20 08:59N 26°04' W 080°08'0 0.0
2018-Jun-20 08:29N 26°04' W 080°08'0 0.0
2018-Jun-20 07:44N 26°04' W 080°08'0 0.0
2018-Jun-20 07:29N 26°04' W 080°08'0 0.0
2018-Jun-20 06:59N 26°04' W 080°08'0 0.0
2018-Jun-20 06:29N 26°04' W 080°08'0 0.0
2018-Jun-20 05:56N 26°04' W 080°08'0 0.0
2018-Jun-20 05:29N 26°04' W 080°08'0 0.0
2018-Jun-20 04:59N 26°04' W 080°08'0 0.0
2018-Jun-20 04:29N 26°04' W 080°08'0 0.0
2018-Jun-20 03:59N 26°04' W 080°08'0 0.0
2018-Jun-20 03:29N 26°04' W 080°08'0 0.0
2018-Jun-20 02:50N 26°04' W 080°08'0 0.0
2018-Jun-20 02:29N 26°04' W 080°08'0 0.0
2018-Jun-20 01:53N 26°04' W 080°08'0 0.4
2018-Jun-20 01:30N 26°04' W 080°08'2 3.8
2018-Jun-20 01:00N 26°05' W 080°07'3 5.6
2018-Jun-20 00:30N 26°05' W 080°04'5 9.9
2018-Jun-20 00:00N 26°03' W 079°59'5 9.9
2018-Jun-19 23:30N 26°00' W 079°54'5 9.8
2018-Jun-19 23:00N 25°59' W 079°49'5 9.9
2018-Jun-19 22:30N 25°57' W 079°44'  
2018-Jun-17 06:17N 25°57' W 079°37'3 9.0
2018-Jun-17 06:00N 25°57' W 079°40'4 9.0
2018-Jun-17 05:30N 25°57' W 079°45'4 8.8
2018-Jun-17 05:00N 25°58' W 079°50'4 8.5
2018-Jun-17 04:30N 25°59' W 079°55'4 8.8
2018-Jun-17 04:00N 25°59' W 079°59'3 6.4
2018-Jun-17 03:30N 26°01' W 080°03'3 6.7
2018-Jun-17 03:00N 26°04' W 080°04'3 6.5
2018-Jun-17 02:30N 26°05' W 080°07'2 4.3
2018-Jun-17 02:00N 26°04' W 080°08'0 0.1
2018-Jun-17 01:28N 26°04' W 080°08'0 0.0
2018-Jun-17 00:58N 26°04' W 080°08'0 0.0
2018-Jun-17 00:28N 26°04' W 080°08'0 0.0
2018-Jun-16 23:58N 26°04' W 080°08'0 0.0
2018-Jun-16 23:28N 26°04' W 080°08'0 0.0
2018-Jun-16 22:58N 26°04' W 080°08'0 0.0
2018-Jun-16 22:29N 26°04' W 080°08'1 2.1
2018-Jun-16 22:00N 26°04' W 080°07'2 3.4
2018-Jun-16 21:30N 26°05' W 080°05'0 0.1
2018-Jun-16 21:00N 26°05' W 080°05'4 8.8
2018-Jun-16 20:31N 26°02' W 080°01'713.2
2018-Jun-16 20:00N 25°56' W 079°58'612.3
2018-Jun-16 19:31N 25°52' W 079°53'611.4
2018-Jun-16 19:01N 25°49' W 079°47'611.2
2018-Jun-16 18:26N 25°47' W 079°41'3 0.3
2018-Jun-16 07:57N 25°45' W 079°38'4 8.8
2018-Jun-16 07:30N 25°46' W 079°42'5 9.1
2018-Jun-16 06:59N 25°46' W 079°48'4 8.8
2018-Jun-16 06:30N 25°47' W 079°52'4 8.9
2018-Jun-16 06:00N 25°48' W 079°57'3 6.6
2018-Jun-16 05:30N 25°51' W 079°59'3 6.9
2018-Jun-16 05:00N 25°54' W 080°00'4 7.0
2018-Jun-16 04:30N 25°58' W 080°01'4 7.8
2018-Jun-16 04:00N 26°01' W 080°03'5 9.0
2018-Jun-16 03:30N 26°05' W 080°05'2 4.4
2018-Jun-16 03:00N 26°04' W 080°07'1 1.6
2018-Jun-16 02:27N 26°04' W 080°08'0 0.0
2018-Jun-16 02:00N 26°04' W 080°08'0 0.0
2018-Jun-16 01:30N 26°04' W 080°08'0 0.0
2018-Jun-16 01:00N 26°04' W 080°08'0 0.1
2018-Jun-16 00:30N 26°04' W 080°08'0 0.1
2018-Jun-16 00:00N 26°04' W 080°08'0 0.0
2018-Jun-15 23:30N 26°04' W 080°08'0 0.0
2018-Jun-15 23:00N 26°04' W 080°08'0 0.0
2018-Jun-15 22:30N 26°04' W 080°08'0 0.0
2018-Jun-15 22:00N 26°04' W 080°08'0 0.0
2018-Jun-15 21:30N 26°04' W 080°08'0 0.0
2018-Jun-15 21:00N 26°04' W 080°08'0 0.0
2018-Jun-15 20:30N 26°04' W 080°08'0 0.0
2018-Jun-15 19:48N 26°04' W 080°08'0 0.0
2018-Jun-15 19:30N 26°04' W 080°08'0 0.0
2018-Jun-15 18:51N 26°04' W 080°08'0 0.0
2018-Jun-15 18:21N 26°04' W 080°08'0 0.0
2018-Jun-15 17:48N 26°04' W 080°08'0 0.0
2018-Jun-15 17:24N 26°04' W 080°08'0 0.0
2018-Jun-15 16:54N 26°04' W 080°08'0 0.0
2018-Jun-15 16:24N 26°04' W 080°08'0 0.0
2018-Jun-15 15:54N 26°04' W 080°08'0 0.0
2018-Jun-15 15:24N 26°04' W 080°08'0 0.0
2018-Jun-15 14:57N 26°04' W 080°08'0 0.0
2018-Jun-15 14:27N 26°04' W 080°08'0 0.0
2018-Jun-15 13:57N 26°04' W 080°08'0 0.0
2018-Jun-15 13:24N 26°04' W 080°08'0 0.0
2018-Jun-15 12:57N 26°04' W 080°08'0 0.0
2018-Jun-15 12:27N 26°04' W 080°08'0 0.0
2018-Jun-15 12:00N 26°04' W 080°08'0 0.1
2018-Jun-15 11:30N 26°04' W 080°08'2 4.4
2018-Jun-15 11:01N 26°06' W 080°07'5 9.2
2018-Jun-15 10:30N 26°03' W 080°02'510.6
2018-Jun-15 10:00N 26°00' W 079°58'510.2
2018-Jun-15 09:30N 25°58' W 079°52'9 9.4
2018-Jun-15 08:36N 25°57' W 079°43'89 7.4
2018-Jun-14 20:31N 25°50' W 078°04'110.2
2018-Jun-14 20:26N 25°50' W 078°03'510.0
2018-Jun-14 19:56N 25°51' W 077°57'4 9.0
2018-Jun-14 19:28N 25°51' W 077°53'5 8.6
2018-Jun-14 18:53N 25°50' W 077°47'  
Track history (hours):
 
Tides and Currents Weather Stations Pressure Air Temp Water Temp Dewpoint Dewpoint Depression Visibility Wind Speed Wind Dir Waves Ship Positions

Seaexpressii

Last reported at 2018-Jun-24 05:25 UTC. Time now 2018-Jun-25 11:29 UTC.
Position N 25°56' W 079°38'.

Length 37 m; draft 2 m.

Type: Cargo ship. MMSI: 356449000.

Date/timePositionNaut miles runAvg speedWind from/ knotsBaromVisibWave heightAir tempDewpointWater temp
2018-Jun-24 05:25N 25°56' W 079°38'4 9.0
2018-Jun-24 05:00N 25°56' W 079°42'4 8.9
2018-Jun-24 04:30N 25°57' W 079°47'4 8.8
2018-Jun-24 04:00N 25°58' W 079°52'4 8.8
2018-Jun-24 03:30N 25°58' W 079°57'4 8.5
2018-Jun-24 03:00N 26°00' W 080°01'4 7.6
2018-Jun-24 02:30N 26°03' W 080°04'4 7.4
2018-Jun-24 02:00N 26°06' W 080°07'2 4.1
2018-Jun-24 01:30N 26°04' W 080°08'0 0.0
2018-Jun-24 00:56N 26°04' W 080°08'0 0.0
2018-Jun-24 00:26N 26°04' W 080°08'0 0.0
2018-Jun-23 23:59N 26°04' W 080°08'0 0.0
2018-Jun-23 23:29N 26°04' W 080°08'0 0.0
2018-Jun-23 22:59N 26°04' W 080°08'0 0.0
2018-Jun-23 22:26N 26°04' W 080°08'0 0.2
2018-Jun-23 22:00N 26°04' W 080°08'2 4.3
2018-Jun-23 21:30N 26°06' W 080°07'5 9.7
2018-Jun-23 20:58N 26°04' W 080°01'612.2
2018-Jun-23 20:30N 25°59' W 079°57'612.8
2018-Jun-23 20:00N 25°54' W 079°53'510.8
2018-Jun-23 19:30N 25°51' W 079°48'8 0.6
2018-Jun-23 06:38N 25°47' W 079°41'2 9.6
2018-Jun-23 06:29N 25°47' W 079°42'4 9.4
2018-Jun-23 06:00N 25°47' W 079°47'5 9.2
2018-Jun-23 05:31N 25°47' W 079°52'5 9.4
2018-Jun-23 05:01N 25°47' W 079°58'5 9.6
2018-Jun-23 04:30N 25°47' W 080°03'4 7.4
2018-Jun-23 04:01N 25°51' W 080°04'4 8.7
2018-Jun-23 03:31N 25°55' W 080°04'5 9.1
2018-Jun-23 03:00N 25°60' W 080°04'5 9.7
2018-Jun-23 02:31N 26°04' W 080°04'2 4.4
2018-Jun-23 02:00N 26°04' W 080°07'1 2.3
2018-Jun-23 01:31N 26°04' W 080°08'0 0.0
2018-Jun-23 01:00N 26°04' W 080°08'0 0.0
2018-Jun-23 00:30N 26°04' W 080°08'0 0.0
2018-Jun-23 00:00N 26°04' W 080°08'0 0.0
2018-Jun-22 23:30N 26°04' W 080°08'0 0.0
2018-Jun-22 23:00N 26°04' W 080°08'0 0.0
2018-Jun-22 22:30N 26°04' W 080°08'0 0.0
2018-Jun-22 22:00N 26°04' W 080°08'0 0.0
2018-Jun-22 21:30N 26°04' W 080°08'0 0.0
2018-Jun-22 21:00N 26°04' W 080°08'0 0.0
2018-Jun-22 20:30N 26°04' W 080°08'0 0.0
2018-Jun-22 20:01N 26°04' W 080°08'0 0.0
2018-Jun-22 19:30N 26°04' W 080°08'0 0.0
2018-Jun-22 19:01N 26°04' W 080°08'0 0.0
2018-Jun-22 18:30N 26°04' W 080°08'0 0.0
2018-Jun-22 18:00N 26°04' W 080°08'0 0.0
2018-Jun-22 17:30N 26°04' W 080°08'0 0.0
2018-Jun-22 17:01N 26°04' W 080°08'0 0.5
2018-Jun-22 16:30N 26°04' W 080°08'3 5.3
2018-Jun-22 16:00N 26°06' W 080°06'510.0
2018-Jun-22 15:30N 26°03' W 080°01'611.6
2018-Jun-22 15:00N 25°60' W 079°56'612.0
2018-Jun-22 14:30N 25°55' W 079°51'611.9
2018-Jun-22 14:00N 25°51' W 079°46'6 0.2
2018-Jun-21 09:27N 25°45' W 079°46'4 9.2
2018-Jun-21 09:00N 25°46' W 079°50'5 9.2
2018-Jun-21 08:31N 25°47' W 079°55'4 8.6
2018-Jun-21 08:01N 25°49' W 079°60'4 8.8
2018-Jun-21 07:30N 25°52' W 080°03'5 9.8
2018-Jun-21 07:00N 25°57' W 080°04'510.1
2018-Jun-21 06:31N 26°02' W 080°04'4 8.2
2018-Jun-21 06:00N 26°06' W 080°06'2 4.9
2018-Jun-21 05:30N 26°04' W 080°07'0 0.6
2018-Jun-21 04:50N 26°04' W 080°08'0 0.0
2018-Jun-21 04:23N 26°04' W 080°08'0 0.0
2018-Jun-21 03:53N 26°04' W 080°08'0 0.0
2018-Jun-21 03:23N 26°04' W 080°08'0 0.0
2018-Jun-21 02:53N 26°04' W 080°08'0 0.0
2018-Jun-21 02:23N 26°04' W 080°08'0 0.0
2018-Jun-21 01:56N 26°04' W 080°08'0 0.0
2018-Jun-21 01:26N 26°04' W 080°08'0 0.0
2018-Jun-21 00:56N 26°04' W 080°08'0 0.1
2018-Jun-21 00:26N 26°04' W 080°08'0 0.0
2018-Jun-20 23:56N 26°04' W 080°08'0 0.0
2018-Jun-20 23:29N 26°04' W 080°08'0 0.0
2018-Jun-20 22:59N 26°04' W 080°08'0 0.0
2018-Jun-20 22:29N 26°04' W 080°08'0 0.0
2018-Jun-20 21:59N 26°04' W 080°08'0 0.0
2018-Jun-20 21:29N 26°04' W 080°08'0 0.0
2018-Jun-20 20:59N 26°04' W 080°08'0 0.0
2018-Jun-20 20:26N 26°04' W 080°08'0 0.0
2018-Jun-20 19:59N 26°04' W 080°08'0 0.0
2018-Jun-20 19:29N 26°04' W 080°08'0 0.0
2018-Jun-20 18:59N 26°04' W 080°08'0 0.0
2018-Jun-20 18:29N 26°04' W 080°08'0 0.0
2018-Jun-20 17:59N 26°04' W 080°08'0 0.0
2018-Jun-20 17:29N 26°04' W 080°08'0 0.0
2018-Jun-20 16:59N 26°04' W 080°08'0 0.0
2018-Jun-20 16:20N 26°04' W 080°08'0 0.0
2018-Jun-20 15:50N 26°04' W 080°08'0 0.0
2018-Jun-20 15:20N 26°04' W 080°08'0 0.0
2018-Jun-20 14:59N 26°04' W 080°08'0 0.0
2018-Jun-20 14:26N 26°04' W 080°08'0 0.0
2018-Jun-20 13:53N 26°04' W 080°08'0 0.0
2018-Jun-20 13:23N 26°04' W 080°08'0 0.0
2018-Jun-20 12:53N 26°04' W 080°08'0 0.0
2018-Jun-20 12:26N 26°04' W 080°08'0 0.2
2018-Jun-20 11:56N 26°04' W 080°08'0 0.2
2018-Jun-20 11:26N 26°04' W 080°08'0 0.0
2018-Jun-20 10:56N 26°04' W 080°08'0 0.0
2018-Jun-20 10:26N 26°04' W 080°08'0 0.0
2018-Jun-20 09:56N 26°04' W 080°08'0 0.0
2018-Jun-20 09:26N 26°04' W 080°08'0 0.0
2018-Jun-20 08:59N 26°04' W 080°08'0 0.0
2018-Jun-20 08:29N 26°04' W 080°08'0 0.0
2018-Jun-20 07:44N 26°04' W 080°08'0 0.0
2018-Jun-20 07:29N 26°04' W 080°08'0 0.0
2018-Jun-20 06:59N 26°04' W 080°08'0 0.0
2018-Jun-20 06:29N 26°04' W 080°08'0 0.0
2018-Jun-20 05:56N 26°04' W 080°08'0 0.0
2018-Jun-20 05:29N 26°04' W 080°08'0 0.0
2018-Jun-20 04:59N 26°04' W 080°08'0 0.0
2018-Jun-20 04:29N 26°04' W 080°08'0 0.0
2018-Jun-20 03:59N 26°04' W 080°08'0 0.0
2018-Jun-20 03:29N 26°04' W 080°08'0 0.0
2018-Jun-20 02:50N 26°04' W 080°08'0 0.0
2018-Jun-20 02:29N 26°04' W 080°08'0 0.0
2018-Jun-20 01:53N 26°04' W 080°08'0 0.4
2018-Jun-20 01:30N 26°04' W 080°08'2 3.8
2018-Jun-20 01:00N 26°05' W 080°07'3 5.6
2018-Jun-20 00:30N 26°05' W 080°04'5 9.9
2018-Jun-20 00:00N 26°03' W 079°59'5 9.9
2018-Jun-19 23:30N 26°00' W 079°54'5 9.8
2018-Jun-19 23:00N 25°59' W 079°49'5 9.9
2018-Jun-19 22:30N 25°57' W 079°44'  
2018-Jun-17 06:17N 25°57' W 079°37'3 9.0
2018-Jun-17 06:00N 25°57' W 079°40'4 9.0
2018-Jun-17 05:30N 25°57' W 079°45'4 8.8
2018-Jun-17 05:00N 25°58' W 079°50'4 8.5
2018-Jun-17 04:30N 25°59' W 079°55'4 8.8
2018-Jun-17 04:00N 25°59' W 079°59'3 6.4
2018-Jun-17 03:30N 26°01' W 080°03'3 6.7
2018-Jun-17 03:00N 26°04' W 080°04'3 6.5
2018-Jun-17 02:30N 26°05' W 080°07'2 4.3
2018-Jun-17 02:00N 26°04' W 080°08'0 0.1
2018-Jun-17 01:28N 26°04' W 080°08'0 0.0
2018-Jun-17 00:58N 26°04' W 080°08'0 0.0
2018-Jun-17 00:28N 26°04' W 080°08'0 0.0
2018-Jun-16 23:58N 26°04' W 080°08'0 0.0
2018-Jun-16 23:28N 26°04' W 080°08'0 0.0
2018-Jun-16 22:58N 26°04' W 080°08'0 0.0
2018-Jun-16 22:29N 26°04' W 080°08'1 2.1
2018-Jun-16 22:00N 26°04' W 080°07'2 3.4
2018-Jun-16 21:30N 26°05' W 080°05'0 0.1
2018-Jun-16 21:00N 26°05' W 080°05'4 8.8
2018-Jun-16 20:31N 26°02' W 080°01'713.2
2018-Jun-16 20:00N 25°56' W 079°58'612.3
2018-Jun-16 19:31N 25°52' W 079°53'611.4
2018-Jun-16 19:01N 25°49' W 079°47'611.2
2018-Jun-16 18:26N 25°47' W 079°41'3 0.3
2018-Jun-16 07:57N 25°45' W 079°38'4 8.8
2018-Jun-16 07:30N 25°46' W 079°42'5 9.1
2018-Jun-16 06:59N 25°46' W 079°48'4 8.8
2018-Jun-16 06:30N 25°47' W 079°52'4 8.9
2018-Jun-16 06:00N 25°48' W 079°57'3 6.6
2018-Jun-16 05:30N 25°51' W 079°59'3 6.9
2018-Jun-16 05:00N 25°54' W 080°00'4 7.0
2018-Jun-16 04:30N 25°58' W 080°01'4 7.8
2018-Jun-16 04:00N 26°01' W 080°03'5 9.0
2018-Jun-16 03:30N 26°05' W 080°05'2 4.4
2018-Jun-16 03:00N 26°04' W 080°07'1 1.6
2018-Jun-16 02:27N 26°04' W 080°08'0 0.0
2018-Jun-16 02:00N 26°04' W 080°08'0 0.0
2018-Jun-16 01:30N 26°04' W 080°08'0 0.0
2018-Jun-16 01:00N 26°04' W 080°08'0 0.1
2018-Jun-16 00:30N 26°04' W 080°08'0 0.1
2018-Jun-16 00:00N 26°04' W 080°08'0 0.0
2018-Jun-15 23:30N 26°04' W 080°08'0 0.0
2018-Jun-15 23:00N 26°04' W 080°08'0 0.0
2018-Jun-15 22:30N 26°04' W 080°08'0 0.0
2018-Jun-15 22:00N 26°04' W 080°08'0 0.0
2018-Jun-15 21:30N 26°04' W 080°08'0 0.0
2018-Jun-15 21:00N 26°04' W 080°08'0 0.0
2018-Jun-15 20:30N 26°04' W 080°08'0 0.0
2018-Jun-15 19:48N 26°04' W 080°08'0 0.0
2018-Jun-15 19:30N 26°04' W 080°08'0 0.0
2018-Jun-15 18:51N 26°04' W 080°08'0 0.0
2018-Jun-15 18:21N 26°04' W 080°08'0 0.0
2018-Jun-15 17:48N 26°04' W 080°08'0 0.0
2018-Jun-15 17:24N 26°04' W 080°08'0 0.0
2018-Jun-15 16:54N 26°04' W 080°08'0 0.0
2018-Jun-15 16:24N 26°04' W 080°08'0 0.0
2018-Jun-15 15:54N 26°04' W 080°08'0 0.0
2018-Jun-15 15:24N 26°04' W 080°08'0 0.0
2018-Jun-15 14:57N 26°04' W 080°08'0 0.0
2018-Jun-15 14:27N 26°04' W 080°08'0 0.0
2018-Jun-15 13:57N 26°04' W 080°08'0 0.0
2018-Jun-15 13:24N 26°04' W 080°08'0 0.0
2018-Jun-15 12:57N 26°04' W 080°08'0 0.0
2018-Jun-15 12:27N 26°04' W 080°08'0 0.0
2018-Jun-15 12:00N 26°04' W 080°08'0 0.1
2018-Jun-15 11:30N 26°04' W 080°08'2 4.4
2018-Jun-15 11:01N 26°06' W 080°07'5 9.2
2018-Jun-15 10:30N 26°03' W 080°02'510.6
2018-Jun-15 10:00N 26°00' W 079°58'510.2
2018-Jun-15 09:30N 25°58' W 079°52'9 9.4
2018-Jun-15 08:36N 25°57' W 079°43'89 7.4
2018-Jun-14 20:31N 25°50' W 078°04'110.2
2018-Jun-14 20:26N 25°50' W 078°03'510.0
2018-Jun-14 19:56N 25°51' W 077°57'4 9.0
2018-Jun-14 19:28N 25°51' W 077°53'5 8.6
2018-Jun-14 18:53N 25°50' W 077°47'  

Dump ship's entire track history